createdAt,value
2022-09-28T00:01:56.801Z,86.07
2022-09-28T00:05:20.658Z,86.72
2022-09-28T00:08:38.692Z,86.60
2022-09-28T00:12:04.719Z,85.53
2022-09-28T00:15:29.763Z,87.26
2022-09-28T00:18:53.656Z,88.24
2022-09-28T00:22:17.710Z,86.32
2022-09-28T00:25:41.735Z,86.16
2022-09-28T00:29:10.698Z,82.43
2022-09-28T00:32:30.036Z,82.07
2022-09-28T00:35:46.705Z,76.46
2022-09-28T00:39:10.717Z,79.79
2022-09-28T00:42:43.697Z,78.85
2022-09-28T00:46:34.690Z,73.88
2022-09-28T00:50:12.775Z,75.78
2022-09-28T00:53:42.718Z,75.49
2022-09-28T00:57:06.684Z,80.77
2022-09-28T01:00:29.757Z,80.51
2022-09-28T01:03:54.778Z,83.44
2022-09-28T01:07:17.717Z,81.18
2022-09-28T01:10:43.680Z,78.26
2022-09-28T01:14:11.725Z,76.27
2022-09-28T01:17:41.672Z,76.52
2022-09-28T01:21:12.719Z,76.70
2022-09-28T01:24:57.677Z,79.43
2022-09-28T01:28:29.729Z,76.11
2022-09-28T01:31:51.339Z,75.94
2022-09-28T01:35:14.806Z,74.01
2022-09-28T01:38:45.698Z,73.50
2022-09-28T01:42:10.717Z,70.66
2022-09-28T01:45:43.744Z,73.07
2022-09-28T01:49:13.789Z,74.32
2022-09-28T01:52:52.699Z,73.42
2022-09-28T01:56:24.833Z,68.54
2022-09-28T01:59:49.798Z,66.94
2022-09-28T02:03:14.851Z,61.82
2022-09-28T02:06:58.724Z,62.15
2022-09-28T02:10:28.723Z,60.26
2022-09-28T02:13:55.708Z,61.06
2022-09-28T02:17:19.750Z,57.78
2022-09-28T02:20:44.722Z,57.95
2022-09-28T02:24:21.548Z,59.71
2022-09-28T02:27:50.747Z,61.87
2022-09-28T02:31:15.802Z,67.78
2022-09-28T02:34:41.852Z,68.01
2022-09-28T02:38:06.771Z,66.74
2022-09-28T02:41:39.737Z,66.21
2022-09-28T02:45:28.785Z,66.78
2022-09-28T02:49:20.876Z,65.55
2022-09-28T02:53:04.829Z,67.65
2022-09-28T02:56:53.731Z,68.49
2022-09-28T03:00:24.757Z,70.79
2022-09-28T03:03:58.770Z,71.79
2022-09-28T03:07:26.810Z,74.76
2022-09-28T03:11:11.798Z,75.08
2022-09-28T03:14:39.733Z,78.09
2022-09-28T03:18:04.781Z,77.36
2022-09-28T03:21:29.763Z,77.34
2022-09-28T03:24:52.739Z,75.55
2022-09-28T03:28:16.766Z,78.34
2022-09-28T03:31:40.771Z,77.08
2022-09-28T03:35:04.764Z,79.97
2022-09-28T03:38:28.901Z,78.58
2022-09-28T03:41:52.729Z,78.06
2022-09-28T03:45:16.762Z,76.88
2022-09-28T03:48:43.734Z,76.97
2022-09-28T03:52:07.756Z,77.79
2022-09-28T03:55:31.751Z,75.60
2022-09-28T03:58:55.773Z,76.57
2022-09-28T04:02:20.808Z,74.85
2022-09-28T04:05:45.784Z,73.54
2022-09-28T04:09:09.853Z,73.81
2022-09-28T04:12:34.792Z,74.25
2022-09-28T04:16:06.805Z,75.19
2022-09-28T04:19:34.820Z,78.29
2022-09-28T04:23:21.766Z,82.14
2022-09-28T04:26:45.780Z,84.00
2022-09-28T04:30:01.779Z,87.20
2022-09-28T04:33:26.742Z,89.22
2022-09-28T04:36:50.831Z,89.28
2022-09-28T04:40:14.947Z,90.97
2022-09-28T04:43:38.775Z,92.16
2022-09-28T04:47:05.202Z,97.83
2022-09-28T04:50:57.767Z,97.83
2022-09-28T04:54:21.883Z,99.56
2022-09-28T04:57:48.776Z,99.73
2022-09-28T05:01:15.997Z,100.00
2022-09-28T05:04:57.754Z,100.00
2022-09-28T05:08:54.827Z,100.00
2022-09-28T05:12:18.772Z,100.00
2022-09-28T05:15:43.818Z,100.00
2022-09-28T05:19:11.812Z,100.00
2022-09-28T05:22:34.792Z,100.00
2022-09-28T05:25:59.779Z,100.00
2022-09-28T05:29:28.034Z,100.00
2022-09-28T05:33:01.834Z,100.00
2022-09-28T05:36:37.786Z,100.00
2022-09-28T05:40:01.832Z,100.00
2022-09-28T05:43:25.846Z,100.00
2022-09-28T05:46:48.829Z,100.00
2022-09-28T05:50:13.835Z,100.00
2022-09-28T05:53:38.813Z,100.00
2022-09-28T05:57:02.818Z,100.00
2022-09-28T06:00:26.818Z,100.00
2022-09-28T06:03:51.823Z,100.00
2022-09-28T06:07:15.877Z,100.00
2022-09-28T06:10:40.807Z,100.00
2022-09-28T06:14:03.847Z,100.00
2022-09-28T06:17:28.827Z,100.00
2022-09-28T06:21:20.845Z,100.00
2022-09-28T06:24:44.769Z,100.00
2022-09-28T06:28:16.843Z,100.00
2022-09-28T06:31:39.800Z,100.00
2022-09-28T06:35:04.899Z,100.00
2022-09-28T06:38:28.836Z,100.00
2022-09-28T06:41:53.841Z,100.00
2022-09-28T06:45:21.865Z,100.00
2022-09-28T06:49:19.572Z,100.00
2022-09-28T06:53:07.848Z,100.00
2022-09-28T06:56:46.804Z,100.00
2022-09-28T07:00:10.855Z,100.00
2022-09-28T07:03:37.820Z,100.00
2022-09-28T07:07:31.848Z,100.00
2022-09-28T07:11:22.850Z,100.00
2022-09-28T07:15:04.833Z,100.00
2022-09-28T07:18:28.935Z,100.00
2022-09-28T07:22:02.746Z,100.00
2022-09-28T07:25:28.837Z,100.00
2022-09-28T07:29:18.890Z,100.00
2022-09-28T07:32:49.841Z,100.00
2022-09-28T07:36:28.883Z,100.00
2022-09-28T07:40:11.810Z,100.00
2022-09-28T07:43:36.894Z,100.00
2022-09-28T07:47:00.833Z,100.00
2022-09-28T07:50:57.873Z,100.00
2022-09-28T07:54:25.861Z,100.00
2022-09-28T07:58:12.885Z,100.00
2022-09-28T08:02:12.898Z,100.00
2022-09-28T08:05:39.866Z,100.00
2022-09-28T08:09:04.907Z,100.00
2022-09-28T08:12:48.870Z,100.00
2022-09-28T08:16:26.919Z,100.00
2022-09-28T08:20:29.884Z,100.00
2022-09-28T08:23:54.879Z,100.00
2022-09-28T08:27:18.887Z,100.00
2022-09-28T08:30:42.901Z,100.00
2022-09-28T08:34:30.888Z,100.00
2022-09-28T08:38:08.865Z,100.00
2022-09-28T08:42:09.901Z,100.00
2022-09-28T08:45:44.551Z,100.00
2022-09-28T08:49:38.883Z,100.00
2022-09-28T08:53:30.861Z,100.00
2022-09-28T08:57:07.864Z,100.00
2022-09-28T09:00:35.894Z,100.00
2022-09-28T09:03:59.867Z,100.00
2022-09-28T09:07:54.912Z,100.00
2022-09-28T09:11:25.903Z,100.00
2022-09-28T09:15:14.912Z,100.00
2022-09-28T09:18:53.970Z,100.00
2022-09-28T09:22:49.882Z,100.00
2022-09-28T09:26:48.892Z,100.00
2022-09-28T09:30:33.929Z,100.00
2022-09-28T09:34:19.056Z,100.00
2022-09-28T09:38:35.864Z,100.00
2022-09-28T09:42:58.903Z,100.00
2022-09-28T09:46:38.931Z,100.00
2022-09-28T09:50:13.884Z,100.00
2022-09-28T09:53:51.923Z,100.00
2022-09-28T09:57:41.887Z,100.00
2022-09-28T10:01:25.955Z,100.00
2022-09-28T10:05:25.881Z,100.00
2022-09-28T10:08:52.927Z,100.00
2022-09-28T10:12:20.890Z,100.00
2022-09-28T10:15:47.907Z,100.00
2022-09-28T10:19:27.903Z,100.00
2022-09-28T10:23:12.938Z,100.00
2022-09-28T10:27:02.893Z,100.00
2022-09-28T10:30:38.975Z,100.00
2022-09-28T10:34:03.927Z,100.00
2022-09-28T10:37:27.879Z,100.00
2022-09-28T10:41:06.972Z,100.00
2022-09-28T10:45:39.964Z,100.00
2022-09-28T10:49:17.932Z,100.00
2022-09-28T10:52:57.917Z,100.00
2022-09-28T10:56:50.930Z,100.00
2022-09-28T11:00:44.941Z,100.00
2022-09-28T11:04:19.878Z,100.00
2022-09-28T11:07:44.945Z,100.00
2022-09-28T11:11:24.924Z,100.00
2022-09-28T11:14:56.946Z,100.00
2022-09-28T11:18:41.929Z,100.00
2022-09-28T11:22:05.926Z,100.00
2022-09-28T11:25:32.955Z,100.00
2022-09-28T11:28:56.945Z,100.00
2022-09-28T11:32:35.922Z,100.00
2022-09-28T11:36:29.919Z,100.00
2022-09-28T11:40:21.944Z,100.00
2022-09-28T11:44:21.965Z,100.00
2022-09-28T11:48:19.914Z,100.00
2022-09-28T11:51:46.969Z,100.00
2022-09-28T11:55:14.913Z,100.00
2022-09-28T11:58:50.967Z,100.00
2022-09-28T12:02:32.021Z,100.00
2022-09-28T12:06:07.426Z,100.00
2022-09-28T12:09:39.951Z,100.00
2022-09-28T12:13:32.963Z,100.00
2022-09-28T12:17:30.962Z,100.00
2022-09-28T12:21:00.700Z,100.00
2022-09-28T12:24:41.956Z,100.00
2022-09-28T12:28:13.965Z,100.00
2022-09-28T12:32:03.979Z,100.00
2022-09-28T12:35:39.962Z,100.00
2022-09-28T12:39:57.146Z,100.00
2022-09-28T12:43:25.941Z,100.00
2022-09-28T12:47:14.018Z,100.00
2022-09-28T12:50:57.681Z,100.00
2022-09-28T12:54:34.969Z,100.00
2022-09-28T12:58:13.968Z,100.00
2022-09-28T13:02:13.032Z,100.00
2022-09-28T13:05:56.987Z,100.00
2022-09-28T13:09:33.942Z,100.00
2022-09-28T13:13:33.990Z,100.00
2022-09-28T13:17:14.947Z,100.00
2022-09-28T13:21:00.978Z,100.00
2022-09-28T13:24:32.653Z,100.00
2022-09-28T13:28:00.988Z,100.00
2022-09-28T13:31:27.926Z,100.00
2022-09-28T13:34:55.987Z,100.00
2022-09-28T13:38:31.999Z,100.00
2022-09-28T13:42:03.977Z,100.00
2022-09-28T13:45:39.996Z,100.00
2022-09-28T13:49:22.970Z,100.00
2022-09-28T13:52:55.997Z,100.00
2022-09-28T13:56:24.577Z,100.00
2022-09-28T13:59:42.994Z,100.00
2022-09-28T14:03:18.975Z,100.00
2022-09-28T14:06:48.720Z,100.00
2022-09-28T14:10:36.973Z,100.00
2022-09-28T14:14:15.003Z,100.00
2022-09-28T14:17:38.981Z,100.00
2022-09-28T14:21:22.025Z,100.00
2022-09-28T14:24:56.004Z,100.00
2022-09-28T14:28:45.991Z,100.00
2022-09-28T14:32:15.985Z,100.00
2022-09-28T14:36:04.005Z,100.00
2022-09-28T14:40:04.033Z,100.00
2022-09-28T14:43:48.995Z,100.00
2022-09-28T14:47:49.025Z,100.00
2022-09-28T14:51:42.989Z,100.00
2022-09-28T14:55:06.026Z,100.00
2022-09-28T14:58:42.026Z,100.00
2022-09-28T15:02:26.996Z,100.00
2022-09-28T15:06:03.040Z,100.00
2022-09-28T15:09:50.994Z,100.00
2022-09-28T15:13:50.043Z,100.00
2022-09-28T15:17:16.028Z,100.00
2022-09-28T15:20:44.006Z,100.00
2022-09-28T15:24:01.032Z,100.00
2022-09-28T15:27:31.015Z,100.00
2022-09-28T15:30:56.094Z,100.00
2022-09-28T15:34:38.037Z,100.00
2022-09-28T15:38:03.034Z,100.00
2022-09-28T15:41:28.015Z,100.00
2022-09-28T15:44:56.057Z,100.00
2022-09-28T15:48:35.014Z,100.00
2022-09-28T15:52:11.048Z,100.00
2022-09-28T15:55:35.010Z,100.00
2022-09-28T15:58:59.047Z,100.00
2022-09-28T16:02:34.063Z,100.00
2022-09-28T16:06:22.023Z,100.00
2022-09-28T16:09:46.029Z,100.00
2022-09-28T16:13:13.019Z,100.00
2022-09-28T16:16:46.511Z,100.00
2022-09-28T16:20:12.065Z,100.00
2022-09-28T16:23:36.028Z,100.00
2022-09-28T16:27:00.061Z,100.00
2022-09-28T16:30:43.086Z,100.00
2022-09-28T16:34:11.674Z,100.00
2022-09-28T16:38:01.080Z,100.00
2022-09-28T16:41:27.020Z,100.00
2022-09-28T16:44:51.082Z,100.00
2022-09-28T16:48:15.058Z,100.00
2022-09-28T16:51:39.061Z,100.00
2022-09-28T16:55:39.483Z,100.00
2022-09-28T16:59:04.083Z,100.00
2022-09-28T17:02:46.138Z,100.00
2022-09-28T17:06:11.051Z,100.00
2022-09-28T17:09:37.088Z,100.00
2022-09-28T17:13:02.042Z,100.00
2022-09-28T17:17:06.228Z,100.00
2022-09-28T17:20:17.048Z,100.00
2022-09-28T17:23:41.092Z,100.00
2022-09-28T17:27:09.025Z,100.00
2022-09-28T17:30:33.127Z,100.00
2022-09-28T17:33:57.063Z,100.00
2022-09-28T17:37:22.065Z,100.00
2022-09-28T17:40:46.123Z,100.00
2022-09-28T17:44:11.059Z,100.00
2022-09-28T17:47:36.078Z,100.00
2022-09-28T17:51:01.081Z,100.00
2022-09-28T17:54:28.065Z,100.00
2022-09-28T17:57:51.066Z,100.00
2022-09-28T18:01:15.155Z,100.00
2022-09-28T18:04:51.803Z,100.00
2022-09-28T18:08:16.093Z,100.00
2022-09-28T18:11:41.062Z,100.00
2022-09-28T18:15:05.131Z,100.00
2022-09-28T18:18:29.064Z,100.00
2022-09-28T18:21:53.120Z,100.00
2022-09-28T18:25:17.066Z,100.00
2022-09-28T18:28:40.081Z,100.00
2022-09-28T18:32:05.077Z,100.00
2022-09-28T18:35:29.079Z,100.00
2022-09-28T18:38:54.102Z,100.00
2022-09-28T18:42:18.064Z,100.00
2022-09-28T18:45:43.101Z,100.00
2022-09-28T18:49:07.080Z,100.00
2022-09-28T18:52:25.098Z,100.00
2022-09-28T18:55:49.073Z,100.00
2022-09-28T18:59:15.131Z,100.00
2022-09-28T19:02:31.771Z,100.00
2022-09-28T19:05:53.086Z,100.00
2022-09-28T19:09:17.153Z,100.00
2022-09-28T19:12:41.095Z,100.00
2022-09-28T19:16:05.111Z,100.00
2022-09-28T19:19:32.129Z,100.00
2022-09-28T19:22:56.100Z,100.00
2022-09-28T19:26:26.139Z,100.00
2022-09-28T19:29:50.092Z,100.00
2022-09-28T19:33:15.138Z,100.00
2022-09-28T19:36:41.082Z,100.00
2022-09-28T19:40:04.145Z,100.00
2022-09-28T19:43:30.096Z,100.00
2022-09-28T19:46:54.120Z,100.00
2022-09-28T19:50:18.078Z,100.00
2022-09-28T19:53:46.134Z,100.00
2022-09-28T19:57:15.108Z,100.00
2022-09-28T20:00:39.142Z,100.00
2022-09-28T20:03:57.689Z,100.00
2022-09-28T20:07:15.169Z,100.00
2022-09-28T20:10:39.084Z,100.00
2022-09-28T20:14:03.159Z,100.00
2022-09-28T20:17:29.112Z,100.00
2022-09-28T20:20:55.144Z,100.00
2022-09-28T20:24:19.108Z,100.00
2022-09-28T20:27:43.135Z,100.00
2022-09-28T20:31:07.218Z,100.00
2022-09-28T20:34:31.156Z,100.00
2022-09-28T20:37:58.152Z,100.00
2022-09-28T20:41:26.130Z,100.00
2022-09-28T20:44:51.174Z,100.00
2022-09-28T20:48:17.116Z,100.00
2022-09-28T20:51:42.170Z,100.00
2022-09-28T20:55:06.126Z,100.00
2022-09-28T20:58:29.177Z,100.00
2022-09-28T21:01:53.141Z,100.00
2022-09-28T21:05:17.154Z,100.00
2022-09-28T21:08:41.138Z,100.00
2022-09-28T21:12:05.166Z,100.00
2022-09-28T21:15:30.194Z,100.00
2022-09-28T21:18:55.173Z,100.00
2022-09-28T21:22:19.151Z,100.00
2022-09-28T21:25:43.154Z,100.00
2022-09-28T21:29:11.161Z,100.00
2022-09-28T21:32:35.194Z,100.00
2022-09-28T21:35:59.160Z,100.00
2022-09-28T21:39:23.187Z,100.00
2022-09-28T21:42:47.168Z,100.00
2022-09-28T21:46:11.212Z,100.00
2022-09-28T21:49:36.149Z,100.00
2022-09-28T21:53:00.185Z,100.00
2022-09-28T21:56:26.159Z,100.00
2022-09-28T21:59:50.191Z,100.00
2022-09-28T22:03:08.851Z,100.00
2022-09-28T22:06:29.210Z,100.00
2022-09-28T22:09:54.180Z,100.00
2022-09-28T22:13:19.185Z,100.00
2022-09-28T22:16:46.210Z,100.00
2022-09-28T22:20:10.160Z,100.00
2022-09-28T22:23:33.209Z,100.00
2022-09-28T22:26:58.157Z,100.00
2022-09-28T22:30:21.187Z,100.00
2022-09-28T22:33:45.146Z,100.00
2022-09-28T22:37:09.219Z,100.00
2022-09-28T22:40:34.183Z,100.00
2022-09-28T22:43:57.205Z,100.00
2022-09-28T22:47:21.165Z,100.00
2022-09-28T22:50:44.199Z,100.00
2022-09-28T22:54:09.161Z,100.00
2022-09-28T22:57:35.211Z,100.00
2022-09-28T23:01:00.193Z,100.00
2022-09-28T23:04:24.222Z,100.00
2022-09-28T23:07:49.202Z,100.00
2022-09-28T23:11:13.213Z,100.00
2022-09-28T23:14:37.220Z,100.00
2022-09-28T23:18:01.235Z,100.00
2022-09-28T23:21:29.209Z,100.00
2022-09-28T23:24:53.219Z,100.00
2022-09-28T23:28:18.211Z,100.00
2022-09-28T23:31:37.256Z,100.00
2022-09-28T23:35:02.245Z,100.00
2022-09-28T23:38:30.200Z,100.00
2022-09-28T23:41:55.233Z,100.00
2022-09-28T23:45:20.185Z,100.00
2022-09-28T23:48:45.252Z,100.00
2022-09-28T23:52:09.208Z,100.00
2022-09-28T23:55:33.249Z,100.00
2022-09-28T23:58:58.180Z,100.00
